Huvudsida
METAR-TAF:

METAR-TAF

Flygplatser :

Ålborgs flygplats

Ålborg, Danmark

latitud: 57-06N, longitud: 009-51E, höjd: 3 m

Aktuellt väderrapport

Denna rapport gjordes för 34 minuter sedan, klockan 02:20 UTC
Vind 3 kt från nordväst
Temperatur 8°C
Fuktighet 81%
Tryck 1023 hPa
Sikt 10 km eller mer

METAR: EKYT 190220Z AUTO 32003KT 9999 NCD 08/05 Q1023

Tid: 04:54 (02:54 UTC)

Väderprognos

Denna rapport gjordes för 40 minuter sedan, klockan 02:14 UTC
Prognos gäller från 19 kl. 03 UTC till 20 kl. 03 UTC
Vind 8 kt från väst/nordväst
Sikt 10 km eller mer
Få moln på en höjd av 3000 ft
Temporärt
från 19 kl. 05 UTC till 19 kl. 10 UTC
Vind 3 kt varierande vindriktning
Blir
från 19 kl. 15 UTC till 19 kl. 18 UTC
Vind 7 kt från väst

TAF: EKYT 190214Z 1903/2003 30008KT 9999 FEW030 TEMPO 1905/1910 VRB03KT BECMG 1915/1918 26007KT

Aktuella väderrapporter och prognoser från 4000 flygplatser (METAR- och TAF-rapporter).

De tillgängliga stationerna syns som gula och röda prickar på kartan.

För musen över prickarna för att se namnen på stationerna.

Klicka sedan för att få väderrapporter och prognoser.

För att ändra kartan: Klicka på de gröna knapparna med ett svart kors på för att zooma in; den gröna knappen med ett streck på för att zooma ut; eller på de gröna pilarna för angränsande kartor.


METAR-TAF: